Terminal Aerodrome Forecast
Issued by NWS

Current Version | Previous Version | Graphics & Text | Print | Product List | Glossary On
Versions: 1 2 3 4 5 6 7 8 9 10 11 12 13 14 15 16 17 18 19 20 21 22 23 24 25 26 27 28 29
000
FTUS41 KRNK 300744 AAB
TAFLWB
TAF AMD
KLWB 300744Z 3008/0106 00000KT P6SM VCSH SCT001 BKN025
     FM301000 10004KT 4SM -SHRA BR OVC005
     FM301500 11006KT P6SM VCSH SCT007 OVC025
     FM301900 14003KT 5SM TSRA BR OVC015CB
     FM010000 00000KT P6SM SCT015 BKN035=

USA.gov is the U.S. government's official web portal to all federal, state and local government web resources and services.